23°C Temp
18°C Dewpoint
74% Humidity
Temperature
11 KM/H
7 MPH
6 KTS
190°
Due South

Wind Speed
Partly Cloudy
Conditions
Pressure 1010.12 (hPa) - 29.83 (in)
Visibility 9.0 (mi) - 14.5 (km)

Current Conditions
CYZE
Location 50(km)
Metar :CYZE 171527Z AUTO 19006KT 170V240 9SM FEW013 SCT020 BKN036 23/18 A2983 RMK SLP104 DENSITY ALT 1700FT
Sat 17th August 11:27 am

Airport
  Metar Aviation API Data Provided by https://www.checkwx.com/ PHP scripts by weather34.com ©2019